首页
METAR-TAF:

METAR-TAF

机场 :

萨尔瓦多奥斯卡·阿努尔福·罗梅罗-伊-加尔达梅斯主教国际机场

萨尔瓦多, 萨尔瓦多

纬度: 13-26N, 经度: 089-03W, 海拔: 25米

当前天气观测

该预报发布于25分钟前的11:50 UTC
风速4节,风向东北,在之间变化
温度 24°C
湿度 78%
气压 1013 hPa
能见度10公里或以上
少量云层高于2300英尺

METAR: MSLP 271150Z 05004KT 010V080 9999 FEW023 24/20 Q1012 A2990 NOSIG

时间: 06:15 (12:15 UTC)

预报

该预报发布于2小时和50分钟前的09:25 UTC
预报有效从27日的 12点(UTC)到 28日的 12点(UTC)
风速8节,风向东北
能见度10公里或以上
1500米以下无云,无积雨云
从 27日的 1500点(UTC)
风速12节,风向北转东北,有时为25节阵风
能见度10公里或以上
少量云层高于4300英尺
短暂存在
从 27日的 20点(UTC)到 28日的 01点(UTC)
风速8节,风向

TAF: MSLP 270925Z 2712/2812 05008KT CAVOK TX34/2718Z TN25/2812Z FM271500 02012G25KT 9999 FEW043 TEMPO 2720/2801 19008KT

超过4000个机场的气象观测和天气预报(METAR&TAF报告)。

可查询的气象台以黄色和红色小点在地图上表示。

将鼠标移到小点上方,可查看气象台名称。

然后点击查看天气观测和预报。

如需切换地图:点击带黑十字的绿色按钮放大地图;点击带横线的绿色按钮缩小地图;或者点击绿色箭头查看邻近地区的地图。


METAR-TAF: